createdAt,value
2018-11-07T00:00:50.106Z,22.83
2018-11-07T00:05:34.686Z,23.70
2018-11-07T00:10:19.335Z,23.93
2018-11-07T00:15:03.007Z,23.30
2018-11-07T00:19:46.938Z,22.63
2018-11-07T00:24:30.739Z,23.77
2018-11-07T00:29:15.192Z,22.37
2018-11-07T00:33:58.975Z,22.37
2018-11-07T00:38:43.393Z,22.90
2018-11-07T00:43:27.699Z,24.70
2018-11-07T00:48:12.548Z,22.53
2018-11-07T00:52:56.257Z,24.20
2018-11-07T00:57:40.967Z,23.73
2018-11-07T01:02:25.078Z,22.80
2018-11-07T01:07:09.089Z,24.30
2018-11-07T01:11:53.218Z,24.87
2018-11-07T01:16:38.871Z,23.40
2018-11-07T01:21:22.957Z,26.33
2018-11-07T01:26:06.649Z,25.97
2018-11-07T01:30:51.425Z,27.50
2018-11-07T01:35:37.070Z,24.40
2018-11-07T01:40:20.787Z,26.57
2018-11-07T01:45:04.555Z,25.63
2018-11-07T01:49:48.289Z,24.77
2018-11-07T01:54:32.065Z,26.00
2018-11-07T01:59:15.696Z,25.73
2018-11-07T02:03:59.400Z,30.07
2018-11-07T02:08:43.087Z,32.90
2018-11-07T02:13:26.811Z,32.63
2018-11-07T02:18:10.613Z,31.20
2018-11-07T02:22:59.974Z,31.53
2018-11-07T02:27:43.736Z,32.63
2018-11-07T02:32:27.533Z,31.10
2018-11-07T02:37:12.758Z,30.63
2018-11-07T02:41:56.497Z,31.53
2018-11-07T02:46:40.383Z,31.23
2018-11-07T02:51:24.101Z,30.90
2018-11-07T02:56:07.856Z,32.37
2018-11-07T03:00:51.523Z,30.93
2018-11-07T03:05:35.442Z,29.27
2018-11-07T03:10:19.793Z,30.80
2018-11-07T03:15:03.800Z,31.70
2018-11-07T03:19:47.498Z,34.40
2018-11-07T03:24:31.257Z,33.43
2018-11-07T03:29:15.075Z,34.50
2018-11-07T03:33:58.819Z,34.30
2018-11-07T03:38:42.524Z,36.53
2018-11-07T03:43:26.360Z,36.27
2018-11-07T03:48:10.342Z,33.67
2018-11-07T03:52:54.185Z,35.20
2018-11-07T03:57:37.862Z,35.67
2018-11-07T04:02:21.636Z,35.90
2018-11-07T04:07:05.675Z,36.77
2018-11-07T04:11:49.688Z,36.00
2018-11-07T04:16:33.411Z,35.60
2018-11-07T04:21:17.838Z,36.47
2018-11-07T04:26:01.580Z,36.53
2018-11-07T04:30:45.329Z,37.17
2018-11-07T04:35:29.154Z,44.20
2018-11-07T04:40:13.426Z,41.93
2018-11-07T04:44:57.196Z,42.70
2018-11-07T04:49:41.110Z,36.80
2018-11-07T04:54:25.138Z,36.87
2018-11-07T04:59:08.891Z,37.63
2018-11-07T05:03:53.752Z,38.37
2018-11-07T05:08:37.526Z,38.67
2018-11-07T05:13:21.274Z,39.13
2018-11-07T05:18:04.973Z,38.20
2018-11-07T05:22:48.852Z,40.40
2018-11-07T05:27:32.786Z,41.00
2018-11-07T05:32:17.198Z,38.97
2018-11-07T05:37:00.910Z,34.83
2018-11-07T05:41:44.788Z,35.63
2018-11-07T05:46:28.651Z,36.47
2018-11-07T05:51:12.843Z,38.53
2018-11-07T05:55:56.612Z,37.10
2018-11-07T06:00:40.466Z,37.37
2018-11-07T06:05:24.278Z,35.97
2018-11-07T06:10:10.263Z,37.37
2018-11-07T06:14:54.080Z,37.07
2018-11-07T06:19:37.869Z,40.30
2018-11-07T06:24:21.703Z,44.13
2018-11-07T06:29:05.436Z,42.73
2018-11-07T06:33:49.302Z,40.70
2018-11-07T06:38:33.174Z,39.43
2018-11-07T06:43:17.115Z,37.90
2018-11-07T06:48:00.842Z,42.30
2018-11-07T06:52:44.743Z,42.03
2018-11-07T06:57:28.588Z,40.27
2018-11-07T07:02:12.550Z,38.80
2018-11-07T07:06:56.514Z,41.60
2018-11-07T07:11:40.738Z,41.47
2018-11-07T07:16:24.551Z,41.10
2018-11-07T07:21:08.515Z,41.00
2018-11-07T07:25:52.494Z,39.87
2018-11-07T07:30:36.490Z,39.20
2018-11-07T07:35:20.169Z,40.40
2018-11-07T07:40:04.166Z,38.20
2018-11-07T07:44:47.828Z,38.53
2018-11-07T07:49:31.773Z,36.40
2018-11-07T07:54:15.561Z,37.37
2018-11-07T07:58:59.280Z,35.40
2018-11-07T08:03:43.168Z,33.87
2018-11-07T08:08:26.960Z,33.20
2018-11-07T08:13:10.841Z,32.30
2018-11-07T08:17:54.611Z,32.47
2018-11-07T08:22:38.376Z,29.40
2018-11-07T08:27:22.198Z,29.03
2018-11-07T08:32:06.321Z,27.87
2018-11-07T08:36:50.095Z,27.83
2018-11-07T08:41:35.310Z,26.07
2018-11-07T08:46:19.600Z,25.63
2018-11-07T08:51:03.398Z,25.53
2018-11-07T08:55:47.173Z,26.00
2018-11-07T09:00:30.957Z,26.77
2018-11-07T09:05:16.032Z,27.77
2018-11-07T09:09:59.976Z,24.27
2018-11-07T09:14:43.699Z,23.93
2018-11-07T09:19:27.492Z,24.00
2018-11-07T09:24:11.487Z,24.27
2018-11-07T09:28:55.298Z,25.67
2018-11-07T09:33:39.024Z,25.73
2018-11-07T09:38:22.841Z,24.10
2018-11-07T09:43:06.555Z,24.57
2018-11-07T09:47:50.842Z,25.47
2018-11-07T09:52:34.669Z,22.67
2018-11-07T09:57:18.476Z,23.27
2018-11-07T10:02:02.530Z,23.93
2018-11-07T10:06:46.295Z,22.47
2018-11-07T10:11:30.045Z,22.50
2018-11-07T10:16:13.913Z,22.60
2018-11-07T10:20:58.770Z,23.73
2018-11-07T10:25:42.663Z,21.70
2018-11-07T10:30:26.441Z,22.50
2018-11-07T10:35:10.615Z,23.13
2018-11-07T10:39:54.383Z,23.27
2018-11-07T10:44:38.071Z,21.60
2018-11-07T10:49:21.911Z,19.93
2018-11-07T10:54:05.632Z,20.60
2018-11-07T10:58:49.474Z,18.67
2018-11-07T11:03:33.335Z,18.33
2018-11-07T11:08:17.113Z,19.47
2018-11-07T11:13:00.859Z,18.00
2018-11-07T11:17:44.756Z,18.00
2018-11-07T11:22:28.412Z,17.73
2018-11-07T11:27:12.331Z,17.77
2018-11-07T11:31:56.933Z,14.20
2018-11-07T11:36:40.814Z,15.57
2018-11-07T11:41:24.561Z,14.73
2018-11-07T11:46:08.390Z,14.03
2018-11-07T11:50:52.081Z,15.20
2018-11-07T11:55:36.030Z,16.40
2018-11-07T12:00:20.745Z,14.40
2018-11-07T12:05:05.147Z,14.70
2018-11-07T12:09:49.123Z,15.47
2018-11-07T12:14:33.042Z,16.23
2018-11-07T12:19:17.056Z,17.00
2018-11-07T12:24:01.253Z,17.87
2018-11-07T12:28:45.023Z,18.37
2018-11-07T12:33:29.195Z,16.80
2018-11-07T12:38:12.879Z,17.63
2018-11-07T12:42:56.902Z,17.20
2018-11-07T12:47:40.887Z,16.33
2018-11-07T12:52:24.805Z,18.43
2018-11-07T12:57:08.844Z,17.00
2018-11-07T13:01:52.575Z,16.90
2018-11-07T13:06:36.439Z,16.67
2018-11-07T13:11:20.274Z,17.77
2018-11-07T13:16:04.106Z,17.57
2018-11-07T13:20:48.025Z,18.73
2018-11-07T13:25:31.871Z,18.27
2018-11-07T13:30:16.787Z,17.67
2018-11-07T13:35:00.638Z,17.83
2018-11-07T13:39:44.325Z,18.30
2018-11-07T13:44:28.243Z,17.73
2018-11-07T13:49:12.056Z,17.23
2018-11-07T13:53:56.106Z,18.10
2018-11-07T13:58:39.865Z,17.77
2018-11-07T14:03:23.724Z,17.80
2018-11-07T14:08:07.416Z,17.73
2018-11-07T14:12:51.844Z,18.77
2018-11-07T14:17:35.700Z,17.40
2018-11-07T14:22:19.517Z,23.27
2018-11-07T14:27:03.416Z,21.27
2018-11-07T14:31:47.273Z,22.60
2018-11-07T14:36:31.172Z,23.43
2018-11-07T14:41:15.001Z,24.90
2018-11-07T14:45:58.950Z,25.70
2018-11-07T14:50:43.072Z,27.27
2018-11-07T14:55:26.982Z,25.30
2018-11-07T15:00:14.991Z,24.63
2018-11-07T15:04:58.700Z,27.53
2018-11-07T15:09:42.457Z,30.13
2018-11-07T15:14:26.264Z,29.63
2018-11-07T15:19:10.215Z,28.17
2018-11-07T15:23:54.827Z,26.67
2018-11-07T15:28:38.629Z,25.53
2018-11-07T15:33:23.047Z,27.10
2018-11-07T15:38:06.747Z,28.80
2018-11-07T15:42:50.614Z,31.20
2018-11-07T15:48:23.325Z,28.93
2018-11-07T15:53:15.912Z,26.73
2018-11-07T15:58:03.857Z,29.33
2018-11-07T16:02:47.956Z,31.00
2018-11-07T16:07:31.730Z,28.17
2018-11-07T16:12:15.547Z,30.93
2018-11-07T16:16:59.329Z,29.73
2018-11-07T16:21:43.146Z,28.77
2018-11-07T16:26:27.144Z,28.83
2018-11-07T16:31:11.087Z,29.13
2018-11-07T16:40:35.830Z,28.37
2018-11-07T16:45:20.021Z,30.60
2018-11-07T16:50:05.260Z,29.40
2018-11-07T16:54:49.158Z,31.13
2018-11-07T16:59:33.034Z,29.10
2018-11-07T17:04:16.997Z,30.37
2018-11-07T17:09:00.887Z,31.00
2018-11-07T17:13:44.926Z,31.67
2018-11-07T17:18:28.839Z,30.47
2018-11-07T17:23:18.527Z,29.73
2018-11-07T17:27:56.767Z,30.50
2018-11-07T17:32:45.094Z,32.63
2018-11-07T17:42:41.886Z,34.07
2018-11-07T17:47:26.506Z,34.43
2018-11-07T17:52:10.425Z,33.27
2018-11-07T17:56:54.476Z,33.23
2018-11-07T18:01:38.354Z,33.60
2018-11-07T18:06:22.375Z,34.30
2018-11-07T18:11:06.511Z,33.03
2018-11-07T18:15:50.651Z,34.83
2018-11-07T18:20:34.701Z,35.90
2018-11-07T18:25:18.971Z,34.47
2018-11-07T18:30:02.897Z,33.50
2018-11-07T18:34:48.003Z,35.70
2018-11-07T18:39:32.080Z,33.90
2018-11-07T18:44:16.202Z,34.10
2018-11-07T18:49:00.309Z,36.43
2018-11-07T18:53:44.644Z,36.67
2018-11-07T18:58:28.652Z,34.73
2018-11-07T19:03:12.628Z,38.67
2018-11-07T19:07:56.434Z,36.87
2018-11-07T19:12:40.896Z,41.07
2018-11-07T19:17:24.644Z,39.07
2018-11-07T19:22:08.391Z,37.50
2018-11-07T19:26:53.092Z,39.07
2018-11-07T19:31:36.930Z,37.80
2018-11-07T19:36:20.799Z,39.73
2018-11-07T19:41:04.640Z,45.37
2018-11-07T19:45:48.595Z,51.20
2018-11-07T19:50:32.341Z,46.17
2018-11-07T19:55:18.022Z,41.43
2018-11-07T20:00:02.003Z,39.40
2018-11-07T20:04:45.962Z,38.63
2018-11-07T20:09:29.906Z,38.40
2018-11-07T20:14:13.979Z,37.43
2018-11-07T20:18:57.901Z,37.60
2018-11-07T20:23:41.712Z,39.80
2018-11-07T20:28:26.546Z,38.93
2018-11-07T20:33:10.408Z,37.57
2018-11-07T20:37:54.316Z,42.00
2018-11-07T20:42:38.237Z,40.63
2018-11-07T20:47:22.000Z,38.83
2018-11-07T20:52:06.167Z,40.90
2018-11-07T20:56:50.142Z,38.23
2018-11-07T21:01:33.943Z,38.00
2018-11-07T21:06:17.857Z,39.30
2018-11-07T21:11:01.790Z,37.47
2018-11-07T21:15:45.528Z,38.37
2018-11-07T21:20:29.329Z,36.67
2018-11-07T21:25:13.542Z,38.93
2018-11-07T21:29:57.471Z,39.27
2018-11-07T21:34:41.367Z,39.33
2018-11-07T21:39:25.152Z,38.67
2018-11-07T21:44:08.913Z,39.10
2018-11-07T21:48:52.686Z,37.40
2018-11-07T21:53:36.372Z,39.80
2018-11-07T21:58:20.059Z,41.27
2018-11-07T22:03:03.677Z,39.73
2018-11-07T22:07:47.421Z,38.67
2018-11-07T22:12:31.150Z,36.23
2018-11-07T22:17:15.167Z,36.13
2018-11-07T22:21:58.859Z,34.77
2018-11-07T22:26:42.676Z,34.23
2018-11-07T22:31:26.694Z,33.70
2018-11-07T22:36:10.370Z,33.43
2018-11-07T22:40:54.064Z,33.00
2018-11-07T22:45:37.741Z,31.07
2018-11-07T22:50:21.445Z,30.07
2018-11-07T22:55:05.401Z,33.47
2018-11-07T22:59:49.328Z,31.80
2018-11-07T23:04:33.017Z,30.63
2018-11-07T23:09:16.670Z,30.63
2018-11-07T23:14:00.388Z,29.23
2018-11-07T23:18:44.098Z,29.63
2018-11-07T23:23:27.887Z,29.93
2018-11-07T23:28:11.802Z,30.27
2018-11-07T23:32:56.054Z,30.80
2018-11-07T23:37:39.917Z,30.00
2018-11-07T23:42:23.724Z,28.53
2018-11-07T23:47:07.437Z,29.43
2018-11-07T23:51:51.228Z,28.77
2018-11-07T23:56:35.008Z,30.50
